Time;durP1;ratioP1;P1;durP2;ratioP2;P2;SDS_P1;SDS_P2;PMS_P1;PMS_P2;Temp;Humidity;BMP_temperature;BMP_pressure;BME280_temperature;BME280_humidity;BME280_pressure;Samples;Min_cycle;Max_cycle;Signal;HPM_P1;HPM_P2
2022/05/11 00:00:12;;;;;;;15.57;10.15;;;13.20;99.90;;;;;;5092892;28;20044;-75
2022/05/11 00:02:39;;;;;;;19.02;10.32;;;13.20;99.90;;;;;;5093009;28;20090;-76
2022/05/11 00:05:06;;;;;;;17.38;9.13;;;13.20;99.90;;;;;;5075111;28;20055;-76
2022/05/11 00:07:32;;;;;;;17.33;9.55;;;13.20;99.90;;;;;;5092724;28;20040;-75
2022/05/11 00:09:58;;;;;;;14.82;9.07;;;13.20;99.90;;;;;;5092458;28;20044;-76
2022/05/11 00:12:24;;;;;;;17.48;9.10;;;13.20;99.90;;;;;;5075347;28;20314;-75
2022/05/11 00:14:49;;;;;;;19.00;9.10;;;13.20;99.90;;;;;;5075223;28;20072;-75
2022/05/11 00:17:15;;;;;;;16.60;9.00;;;13.20;99.90;;;;;;5092755;28;20314;-75
2022/05/11 00:19:41;;;;;;;13.02;9.02;;;13.20;99.90;;;;;;5058419;28;20119;-76
2022/05/11 00:22:07;;;;;;;12.35;8.77;;;13.10;99.90;;;;;;5092241;28;20062;-76
2022/05/11 00:24:32;;;;;;;15.70;9.32;;;13.20;99.90;;;;;;5074559;28;20048;-76
2022/05/11 00:26:58;;;;;;;15.38;9.57;;;13.20;99.90;;;;;;5092422;28;20115;-75
2022/05/11 00:29:24;;;;;;;15.32;8.82;;;13.20;99.90;;;;;;5092618;28;20063;-76
2022/05/11 00:31:50;;;;;;;15.77;10.07;;;13.20;99.90;;;;;;5092364;28;20449;-74
2022/05/11 00:34:15;;;;;;;18.80;9.55;;;13.20;99.90;;;;;;5092479;28;20442;-75
2022/05/11 00:36:41;;;;;;;15.07;9.32;;;13.20;99.90;;;;;;5074617;28;20530;-75
2022/05/11 00:39:07;;;;;;;15.48;9.18;;;13.20;99.90;;;;;;5092099;28;20452;-75
2022/05/11 00:41:33;;;;;;;12.32;7.32;;;13.20;99.90;;;;;;5092351;28;20040;-76
2022/05/11 00:44:01;;;;;;;15.25;8.07;;;13.20;99.90;;;;;;5092307;28;20044;-76
2022/05/11 00:46:42;;;;;;;13.20;8.43;;;13.30;99.90;;;;;;5092171;28;20044;-75
2022/05/11 00:49:34;;;;;;;13.32;8.52;;;13.30;99.90;;;;;;5092243;28;20059;-76
2022/05/11 00:52:14;;;;;;;12.90;8.00;;;13.20;99.90;;;;;;5092525;28;20043;-75
2022/05/11 00:54:45;;;;;;;11.85;8.10;;;13.20;99.90;;;;;;5092322;28;20062;-76
2022/05/11 00:57:20;;;;;;;12.35;8.48;;;13.20;99.90;;;;;;5071890;28;20182;-75
2022/05/11 00:59:50;;;;;;;12.77;7.80;;;13.20;99.90;;;;;;5071954;28;20068;-74
2022/05/11 01:02:18;;;;;;;11.20;7.63;;;13.20;99.90;;;;;;5071799;28;20044;-75
2022/05/11 01:04:45;;;;;;;12.27;7.63;;;13.20;99.90;;;;;;5054517;28;20043;-75
2022/05/11 01:07:13;;;;;;;13.07;7.05;;;13.20;99.90;;;;;;5071747;28;20044;-76
2022/05/11 01:09:40;;;;;;;12.32;8.30;;;13.20;99.90;;;;;;5071704;28;20469;-75
2022/05/11 01:12:13;;;;;;;10.75;7.03;;;13.20;99.90;;;;;;5054213;28;20126;-76
2022/05/11 01:14:41;;;;;;;14.63;8.02;;;13.30;99.90;;;;;;5071655;28;20048;-76
2022/05/11 01:17:07;;;;;;;13.07;7.53;;;13.30;99.90;;;;;;5072365;28;20041;-76
2022/05/11 01:19:38;;;;;;;11.43;6.80;;;13.30;99.90;;;;;;5075859;28;20044;-77
2022/05/11 01:22:27;;;;;;;10.43;7.45;;;13.30;99.90;;;;;;5075320;28;20049;-75
2022/05/11 01:24:53;;;;;;;10.25;6.35;;;13.30;99.90;;;;;;5058168;28;20103;-76
2022/05/11 01:27:36;;;;;;;11.60;7.53;;;13.30;99.90;;;;;;5075689;28;20056;-75
2022/05/11 01:30:28;;;;;;;13.25;6.82;;;13.30;99.90;;;;;;5075629;28;20048;-76
2022/05/11 01:32:55;;;;;;;10.68;7.15;;;13.30;99.90;;;;;;5057766;28;20045;-75
2022/05/11 01:35:39;;;;;;;11.15;6.60;;;13.30;99.90;;;;;;5075406;28;20431;-75
2022/05/11 01:38:32;;;;;;;10.82;7.10;;;13.30;99.90;;;;;;5075266;28;20098;-74
2022/05/11 01:40:59;;;;;;;12.32;6.97;;;13.30;99.90;;;;;;5057773;28;20080;-76
2022/05/11 01:43:29;;;;;;;10.88;6.88;;;13.30;99.90;;;;;;5072273;28;20051;-76
2022/05/11 01:45:56;;;;;;;14.38;7.22;;;13.20;99.90;;;;;;5057396;28;20104;-76
2022/05/11 01:48:22;;;;;;;12.88;7.65;;;13.20;99.90;;;;;;5075423;28;20032;-75
2022/05/11 01:50:48;;;;;;;12.90;6.97;;;13.20;99.90;;;;;;5058081;28;20037;-75
2022/05/11 01:53:15;;;;;;;13.48;6.30;;;13.10;99.90;;;;;;5074965;28;20350;-76
2022/05/11 01:55:41;;;;;;;10.18;6.70;;;13.10;99.90;;;;;;5082945;28;20465;-75
2022/05/11 01:58:08;;;;;;;12.73;6.63;;;13.10;99.90;;;;;;5095094;28;20040;-75
2022/05/11 02:00:35;;;;;;;14.40;7.40;;;13.10;99.90;;;;;;5095084;28;20442;-74
2022/05/11 02:03:02;;;;;;;12.88;6.47;;;13.10;99.90;;;;;;5077650;28;20040;-76
2022/05/11 02:08:12;;;;;;;11.75;6.20;;;13.10;99.90;;;;;;5094861;28;20095;-75
2022/05/11 02:10:39;;;;;;;12.80;5.35;;;13.10;99.90;;;;;;5095034;28;20184;-75
2022/05/11 02:13:05;;;;;;;13.52;5.93;;;13.10;99.90;;;;;;5094762;28;20395;-75
2022/05/11 02:15:31;;;;;;;9.00;5.70;;;13.10;99.90;;;;;;5095281;28;20104;-77
2022/05/11 02:17:57;;;;;;;12.50;6.13;;;13.20;99.90;;;;;;5094729;28;20479;-75
2022/05/11 02:20:24;;;;;;;8.10;5.30;;;13.20;99.90;;;;;;5094697;28;20052;-75
2022/05/11 02:22:51;;;;;;;10.13;6.05;;;13.10;99.90;;;;;;5094759;28;20063;-75
2022/05/11 02:25:17;;;;;;;9.20;5.60;;;13.10;99.90;;;;;;5094786;28;20051;-75
2022/05/11 02:27:45;;;;;;;11.85;5.60;;;13.10;99.90;;;;;;5094340;28;20541;-75
2022/05/11 02:30:14;;;;;;;12.25;5.53;;;13.10;99.90;;;;;;5093622;28;20055;-76
2022/05/11 02:32:40;;;;;;;9.80;6.05;;;13.10;99.90;;;;;;5076862;28;20435;-76
2022/05/11 02:35:13;;;;;;;8.98;5.57;;;13.20;99.90;;;;;;5094396;28;20036;-76
2022/05/11 02:37:47;;;;;;;13.43;5.70;;;13.10;99.90;;;;;;5092268;28;20043;-75
2022/05/11 02:40:16;;;;;;;10.40;5.43;;;13.10;99.90;;;;;;5094195;28;20075;-75
2022/05/11 02:42:42;;;;;;;8.30;5.60;;;13.10;99.90;;;;;;5076910;28;20050;-76
2022/05/11 02:45:09;;;;;;;10.00;5.50;;;13.10;99.90;;;;;;5094450;28;20039;-76
2022/05/11 02:47:35;;;;;;;9.10;5.82;;;13.10;99.90;;;;;;5094147;28;20044;-76
2022/05/11 02:50:03;;;;;;;10.02;5.97;;;13.10;99.90;;;;;;5076814;28;20052;-76
2022/05/11 02:52:30;;;;;;;11.57;5.82;;;13.10;99.90;;;;;;5094002;28;20077;-75
2022/05/11 02:54:56;;;;;;;10.75;5.95;;;13.10;99.90;;;;;;5076636;28;20131;-75
2022/05/11 02:57:21;;;;;;;13.77;5.70;;;13.10;99.90;;;;;;5094022;28;20512;-77
2022/05/11 02:59:49;;;;;;;16.52;6.38;;;13.10;99.90;;;;;;5094180;28;20353;-77
2022/05/11 03:02:17;;;;;;;12.80;6.28;;;13.10;99.90;;;;;;5076432;28;20387;-74
2022/05/11 03:04:43;;;;;;;10.65;5.82;;;13.10;99.90;;;;;;5076513;28;20123;-76
2022/05/11 03:07:09;;;;;;;10.93;5.88;;;13.10;99.90;;;;;;5075739;28;20443;-75
2022/05/11 03:09:34;;;;;;;11.57;6.53;;;13.10;99.90;;;;;;5093929;28;20343;-76
2022/05/11 03:12:01;;;;;;;8.20;5.72;;;13.10;99.90;;;;;;5093855;28;20056;-76
2022/05/11 03:14:27;;;;;;;8.38;5.82;;;13.10;99.90;;;;;;5093882;28;20089;-75
2022/05/11 03:16:52;;;;;;;11.43;6.18;;;13.00;99.90;;;;;;5093724;28;20401;-75
2022/05/11 03:19:18;;;;;;;11.30;5.55;;;13.10;99.90;;;;;;5093689;28;20136;-77
2022/05/11 03:21:44;;;;;;;11.40;5.93;;;13.10;99.90;;;;;;5075510;28;20480;-76
2022/05/11 03:24:10;;;;;;;10.52;6.00;;;13.10;99.90;;;;;;5075845;28;20063;-76
2022/05/11 03:26:35;;;;;;;12.80;6.20;;;13.10;99.90;;;;;;5095081;28;20048;-76
2022/05/11 03:29:05;;;;;;;11.38;5.88;;;13.10;99.90;;;;;;5079560;28;20039;-75
2022/05/11 03:31:35;;;;;;;12.23;6.10;;;13.10;99.90;;;;;;5096158;28;20047;-76
2022/05/11 03:36:47;;;;;;;12.60;6.05;;;13.10;99.90;;;;;;5078679;28;19922;-75
2022/05/11 03:39:17;;;;;;;12.95;6.03;;;13.10;99.90;;;;;;5078593;28;20043;-74
2022/05/11 03:41:46;;;;;;;10.25;5.57;;;13.10;99.90;;;;;;5095957;28;20101;-76
2022/05/11 03:44:12;;;;;;;10.00;5.53;;;13.10;99.90;;;;;;5078581;28;20105;-74
2022/05/11 03:46:38;;;;;;;10.90;5.07;;;13.10;99.90;;;;;;5095892;28;20099;-75
2022/05/11 03:49:04;;;;;;;11.85;5.43;;;13.10;99.90;;;;;;5095284;28;20150;-75
2022/05/11 03:51:30;;;;;;;11.75;5.85;;;13.10;99.90;;;;;;5093182;28;20051;-75
2022/05/11 03:53:56;;;;;;;10.43;5.38;;;13.20;99.90;;;;;;5092992;28;20372;-75
2022/05/11 03:56:22;;;;;;;10.60;5.30;;;13.10;99.90;;;;;;5093256;28;20043;-76
2022/05/11 03:58:48;;;;;;;10.27;4.85;;;13.10;99.90;;;;;;5078213;28;20098;-75
2022/05/11 04:01:14;;;;;;;11.77;5.05;;;13.10;99.90;;;;;;5078307;28;20361;-75
2022/05/11 04:03:41;;;;;;;10.50;5.07;;;13.20;99.90;;;;;;5078092;28;20465;-76
2022/05/11 04:06:06;;;;;;;8.40;5.05;;;13.20;99.90;;;;;;5096044;28;20071;-75
2022/05/11 04:08:33;;;;;;;13.45;5.38;;;13.20;99.90;;;;;;5095921;28;20046;-76
2022/05/11 04:10:58;;;;;;;11.10;4.72;;;13.10;99.90;;;;;;5095792;28;20044;-81
2022/05/11 04:13:25;;;;;;;11.38;5.20;;;13.20;99.90;;;;;;5075377;28;20058;-84
2022/05/11 04:15:52;;;;;;;12.95;5.15;;;13.20;99.90;;;;;;5076438;28;20090;-76
2022/05/11 04:18:19;;;;;;;14.38;4.80;;;13.20;99.90;;;;;;5075231;28;20421;-75
2022/05/11 04:20:45;;;;;;;14.00;5.32;;;13.20;99.90;;;;;;5092406;28;20130;-75
2022/05/11 04:23:12;;;;;;;12.80;4.53;;;13.20;99.90;;;;;;5092554;28;20039;-77
2022/05/11 04:25:38;;;;;;;9.90;4.60;;;13.30;99.90;;;;;;5092487;28;20040;-76
2022/05/11 04:28:11;;;;;;;11.15;4.75;;;13.30;99.90;;;;;;5092309;28;20047;-75
2022/05/11 04:30:39;;;;;;;11.30;5.75;;;13.30;99.90;;;;;;5074671;28;20383;-74
2022/05/11 04:33:07;;;;;;;9.45;5.10;;;13.30;99.90;;;;;;5092265;28;20131;-75
2022/05/11 04:35:34;;;;;;;11.27;5.10;;;13.30;99.90;;;;;;5092393;28;20071;-75
2022/05/11 04:38:06;;;;;;;9.52;5.30;;;13.30;99.90;;;;;;5092232;28;20454;-75
2022/05/11 04:40:34;;;;;;;12.82;5.55;;;13.30;99.90;;;;;;5092333;28;20077;-75
2022/05/11 04:43:10;;;;;;;11.68;5.53;;;13.30;99.90;;;;;;5074480;28;20059;-75
2022/05/11 04:45:40;;;;;;;15.88;5.70;;;13.30;99.90;;;;;;5092426;28;20411;-76
2022/05/11 04:48:08;;;;;;;15.23;5.80;;;13.30;99.90;;;;;;5092280;28;20048;-75
2022/05/11 04:50:36;;;;;;;10.68;5.03;;;13.40;99.90;;;;;;5074563;28;20051;-75
2022/05/11 04:53:03;;;;;;;13.85;5.65;;;13.40;99.90;;;;;;5073894;28;20047;-76
2022/05/11 04:55:29;;;;;;;9.45;5.10;;;13.40;99.90;;;;;;5068301;28;20091;-76
2022/05/11 04:57:55;;;;;;;11.50;5.80;;;13.40;99.90;;;;;;5071732;28;20470;-74
2022/05/11 05:00:22;;;;;;;13.30;5.63;;;13.50;99.90;;;;;;5054635;28;20055;-76
2022/05/11 05:02:48;;;;;;;14.48;6.20;;;13.50;99.90;;;;;;5071826;28;20454;-75
2022/05/11 05:05:14;;;;;;;15.10;5.00;;;13.50;99.90;;;;;;5071855;28;20032;-75
2022/05/11 05:07:41;;;;;;;11.30;5.25;;;13.60;99.90;;;;;;5071764;28;20036;-76
2022/05/11 05:10:12;;;;;;;13.88;6.05;;;13.60;99.90;;;;;;5071619;28;20049;-76
2022/05/11 05:12:40;;;;;;;15.50;5.68;;;13.60;99.90;;;;;;5072187;28;20051;-75
2022/05/11 05:15:08;;;;;;;14.68;5.75;;;13.70;99.90;;;;;;5054308;28;20048;-76
2022/05/11 05:17:34;;;;;;;13.30;6.28;;;13.70;99.90;;;;;;5071736;28;20039;-76
2022/05/11 05:19:59;;;;;;;9.15;5.22;;;13.70;99.90;;;;;;5054382;28;20041;-75
2022/05/11 05:22:25;;;;;;;13.93;5.82;;;13.80;99.90;;;;;;5071503;28;20070;-76
2022/05/11 05:24:51;;;;;;;12.05;5.90;;;13.80;99.90;;;;;;5071941;28;20114;-76
2022/05/11 05:27:18;;;;;;;13.90;5.72;;;13.80;99.90;;;;;;5071744;28;20052;-75
2022/05/11 05:32:47;;;;;;;12.77;6.10;;;13.90;99.90;;;;;;5053935;28;20401;-74
2022/05/11 05:35:16;;;;;;;13.15;5.97;;;13.90;99.90;;;;;;5054025;28;20078;-77
2022/05/11 05:37:43;;;;;;;12.27;6.13;;;14.00;99.90;;;;;;5071530;28;20047;-75
2022/05/11 05:40:09;;;;;;;14.70;6.85;;;14.00;99.90;;;;;;5071326;28;20318;-75
2022/05/11 05:42:35;;;;;;;12.23;6.13;;;14.10;99.90;;;;;;5071098;28;20045;-77
2022/05/11 05:45:02;;;;;;;13.73;5.63;;;14.20;99.90;;;;;;5053867;28;20051;-77
2022/05/11 05:47:28;;;;;;;13.18;6.20;;;14.20;99.90;;;;;;5071468;28;20047;-75
2022/05/11 05:49:53;;;;;;;12.70;5.85;;;14.20;99.90;;;;;;5071784;28;20451;-75
2022/05/11 05:52:22;;;;;;;15.18;6.32;;;14.20;99.90;;;;;;5071286;28;20045;-75
2022/05/11 05:54:50;;;;;;;11.30;5.70;;;14.20;99.90;;;;;;5071942;28;20638;-75
2022/05/11 05:57:16;;;;;;;13.85;5.78;;;14.30;99.90;;;;;;5094263;28;20047;-75
2022/05/11 05:59:43;;;;;;;18.42;6.22;;;14.30;99.90;;;;;;5075406;28;20044;-75
2022/05/11 06:02:13;;;;;;;13.15;6.22;;;14.30;99.90;;;;;;5105780;28;20043;-77
2022/05/11 06:04:47;;;;;;;14.10;5.72;;;14.30;99.90;;;;;;5114447;28;20047;-77
2022/05/11 06:07:14;;;;;;;12.82;5.90;;;14.40;99.90;;;;;;5115601;28;20146;-78
2022/05/11 06:09:41;;;;;;;14.10;6.63;;;14.50;99.90;;;;;;5115471;28;20043;-77
2022/05/11 06:12:09;;;;;;;15.23;7.40;;;14.50;99.90;;;;;;5115315;28;20452;-76
2022/05/11 06:14:36;;;;;;;16.00;7.40;;;14.50;99.90;;;;;;5115236;28;20085;-78
2022/05/11 06:17:03;;;;;;;14.85;6.43;;;14.60;99.90;;;;;;5116296;28;20051;-80
2022/05/11 06:19:29;;;;;;;18.30;6.57;;;14.70;99.90;;;;;;5098706;28;20043;-76
2022/05/11 06:21:55;;;;;;;12.27;5.95;;;14.80;99.90;;;;;;5097103;28;20536;-76
2022/05/11 06:24:20;;;;;;;11.25;6.43;;;14.90;99.90;;;;;;5097466;28;20130;-78
2022/05/11 06:26:46;;;;;;;16.20;7.25;;;15.10;99.90;;;;;;5097385;28;20456;-77
2022/05/11 06:29:12;;;;;;;16.10;6.75;;;15.20;99.90;;;;;;5080393;28;20056;-78
2022/05/11 06:31:38;;;;;;;13.57;5.78;;;15.30;99.90;;;;;;5114841;28;20040;-78
2022/05/11 06:34:04;;;;;;;11.27;5.53;;;15.40;99.90;;;;;;5114805;28;20058;-75
2022/05/11 06:36:30;;;;;;;11.82;4.68;;;15.40;99.90;;;;;;5115076;28;20341;-75
2022/05/11 06:39:00;;;;;;;12.50;4.68;;;15.40;99.90;;;;;;5073919;28;20040;-76
2022/05/11 06:41:29;;;;;;;10.77;4.32;;;15.40;99.90;;;;;;5087530;28;20047;-76
2022/05/11 06:43:55;;;;;;;12.40;3.90;;;15.50;99.90;;;;;;5094183;28;20048;-76
2022/05/11 06:46:21;;;;;;;10.00;4.07;;;15.40;99.90;;;;;;5093823;28;20051;-79
2022/05/11 06:48:48;;;;;;;8.73;3.50;;;15.40;99.90;;;;;;5076329;28;20043;-77
2022/05/11 06:51:16;;;;;;;11.77;4.18;;;15.40;99.90;;;;;;5094116;28;20040;-77
2022/05/11 06:59:21;;;;;;;9.88;3.85;;;15.30;99.90;;;;;;5093618;28;20551;-76
2022/05/11 07:01:57;;;;;;;9.88;2.85;;;15.30;99.90;;;;;;5076583;28;20095;-78
2022/05/11 07:04:23;;;;;;;17.67;3.90;;;15.30;99.90;;;;;;5093810;28;20048;-75
2022/05/11 07:06:53;;;;;;;10.90;3.92;;;15.40;99.90;;;;;;5093724;28;20319;-75
2022/05/11 07:09:20;;;;;;;13.30;3.35;;;15.50;99.90;;;;;;5094669;28;20036;-76
2022/05/11 07:14:30;;;;;;;11.50;3.53;;;15.50;99.90;;;;;;5096432;28;20050;-77
2022/05/11 07:16:56;;;;;;;11.00;3.17;;;15.60;99.90;;;;;;5096154;28;20047;-76
2022/05/11 07:19:23;;;;;;;10.88;3.75;;;15.60;99.90;;;;;;5096489;28;20051;-77
2022/05/11 07:21:50;;;;;;;13.65;3.00;;;15.70;99.90;;;;;;5096208;28;20040;-76
2022/05/11 07:24:16;;;;;;;13.68;3.45;;;15.70;99.90;;;;;;5096673;28;20389;-77
2022/05/11 07:26:44;;;;;;;10.98;3.30;;;15.80;99.90;;;;;;5061800;28;20051;-76
2022/05/11 07:29:10;;;;;;;10.50;3.10;;;15.80;99.90;;;;;;5096241;28;20052;-77
2022/05/11 07:31:37;;;;;;;14.50;4.25;;;15.90;99.90;;;;;;5075302;28;20070;-76
2022/05/11 07:34:05;;;;;;;12.57;3.67;;;16.00;99.90;;;;;;5077135;28;20321;-76
2022/05/11 07:36:31;;;;;;;13.40;3.85;;;16.10;99.90;;;;;;5094816;28;20520;-75
2022/05/11 07:38:58;;;;;;;14.13;3.00;;;16.20;99.90;;;;;;5095933;28;20419;-77
2022/05/11 07:41:24;;;;;;;18.00;4.30;;;16.20;99.90;;;;;;5095908;28;20036;-75
2022/05/11 07:43:50;;;;;;;10.27;3.38;;;16.20;99.90;;;;;;5094908;28;20085;-74
2022/05/11 07:46:16;;;;;;;10.73;2.97;;;16.20;99.90;;;;;;5077842;28;20055;-74
2022/05/11 07:48:42;;;;;;;12.18;2.83;;;16.30;99.90;;;;;;5077486;28;20453;-73
2022/05/11 07:51:08;;;;;;;17.63;4.07;;;16.50;99.90;;;;;;5095465;28;20542;-76
2022/05/11 07:53:35;;;;;;;11.10;3.53;;;16.60;99.90;;;;;;5095841;28;20353;-76
2022/05/11 08:01:46;;;;;;;11.00;3.00;;;17.60;99.90;;;;;;5033379;28;20049;-78
2022/05/11 08:04:12;;;;;;;8.75;2.65;;;17.70;99.90;;;;;;5066819;28;20067;-85
2022/05/11 08:06:37;;;;;;;15.80;3.83;;;17.60;99.90;;;;;;5043520;28;20048;-76
2022/05/11 08:09:03;;;;;;;10.65;2.72;;;17.60;99.90;;;;;;5055789;28;20048;-76
2022/05/11 08:11:30;;;;;;;15.35;3.67;;;17.50;99.90;;;;;;5075302;28;20055;-77
2022/05/11 08:13:56;;;;;;;15.27;3.33;;;17.50;99.90;;;;;;5058060;28;20449;-79
2022/05/11 08:16:23;;;;;;;11.07;2.97;;;17.60;99.90;;;;;;5075834;28;20083;-77
2022/05/11 08:18:49;;;;;;;14.63;3.35;;;17.70;99.90;;;;;;5090096;28;20335;-77
2022/05/11 08:21:15;;;;;;;8.63;2.42;;;17.70;99.90;;;;;;5095394;28;20097;-77
2022/05/11 08:23:41;;;;;;;15.82;2.97;;;17.70;99.90;;;;;;5096271;28;20044;-77
2022/05/11 08:26:07;;;;;;;13.63;3.08;;;17.80;99.90;;;;;;5077613;28;20044;-75
2022/05/11 08:28:33;;;;;;;8.73;2.90;;;17.80;99.90;;;;;;5094818;28;20036;-76
2022/05/11 08:33:43;;;;;;;11.57;3.75;;;17.90;99.90;;;;;;5094590;28;20058;-74
2022/05/11 08:36:19;;;;;;;14.77;3.22;;;17.90;99.90;;;;;;5094195;28;20039;-75
2022/05/11 08:38:50;;;;;;;13.38;2.95;;;17.90;99.90;;;;;;5094863;28;20036;-75
2022/05/11 08:41:27;;;;;;;15.52;3.63;;;18.00;99.90;;;;;;5094307;28;20031;-75
2022/05/11 08:44:01;;;;;;;11.15;3.47;;;18.00;99.90;;;;;;5094286;28;20482;-76
2022/05/11 08:46:50;;;;;;;14.75;3.63;;;18.40;99.90;;;;;;5095342;28;20135;-75
2022/05/11 08:49:37;;;;;;;11.90;2.72;;;18.90;99.90;;;;;;5094737;28;20319;-74
2022/05/11 08:52:05;;;;;;;12.73;2.70;;;19.20;99.90;;;;;;5095004;28;20044;-76
2022/05/11 08:54:44;;;;;;;13.23;3.20;;;19.50;99.90;;;;;;5093615;28;20040;-74
2022/05/11 08:57:14;;;;;;;8.85;2.70;;;19.70;99.90;;;;;;5054298;28;20052;-76
2022/05/11 08:59:41;;;;;;;8.15;2.90;;;20.10;99.90;;;;;;5072172;28;20054;-76
2022/05/11 09:02:22;;;;;;;11.32;3.03;;;20.40;99.90;;;;;;5086696;28;20037;-76
2022/05/11 09:04:58;;;;;;;16.27;3.83;;;20.80;99.90;;;;;;5091754;28;20101;-75
2022/05/11 09:07:24;;;;;;;13.13;3.08;;;21.10;99.90;;;;;;5092025;28;20043;-77
2022/05/11 09:09:54;;;;;;;12.30;4.15;;;20.90;99.90;;;;;;5091472;28;20048;-77
2022/05/11 09:12:21;;;;;;;17.65;3.78;;;20.70;99.90;;;;;;5088557;28;20098;-76
2022/05/11 09:14:52;;;;;;;14.57;3.47;;;20.70;99.90;;;;;;5071863;28;20036;-76
2022/05/11 09:17:23;;;;;;;15.75;4.03;;;20.60;99.90;;;;;;5071853;28;20044;-77
2022/05/11 09:20:00;;;;;;;14.48;3.78;;;20.30;99.90;;;;;;5071782;28;20044;-76
2022/05/11 09:22:26;;;;;;;12.75;4.05;;;20.00;99.90;;;;;;5071175;28;20063;-77
2022/05/11 09:25:02;;;;;;;15.43;3.92;;;19.90;99.90;;;;;;5071497;28;20086;-76
2022/05/11 09:27:29;;;;;;;11.60;3.15;;;20.20;99.90;;;;;;5071662;28;20668;-78
2022/05/11 09:29:57;;;;;;;13.68;3.90;;;20.10;99.90;;;;;;5071583;28;20048;-75
2022/05/11 09:32:25;;;;;;;20.50;4.45;;;20.20;99.90;;;;;;5071831;28;20045;-76
2022/05/11 09:34:51;;;;;;;14.82;4.93;;;20.30;99.90;;;;;;5072022;28;20114;-76
2022/05/11 09:37:35;;;;;;;17.42;4.93;;;20.30;99.90;;;;;;5071769;28;20071;-77
2022/05/11 09:40:21;;;;;;;13.07;4.18;;;20.20;99.90;;;;;;5075419;28;20044;-77
2022/05/11 09:42:56;;;;;;;18.50;4.45;;;19.90;99.90;;;;;;5075589;28;20056;-77
2022/05/11 09:45:43;;;;;;;14.43;4.78;;;19.70;99.90;;;;;;5058263;28;20056;-76
2022/05/11 09:48:31;;;;;;;17.15;5.18;;;19.60;99.90;;;;;;5075425;28;20606;-78
2022/05/11 09:51:38;;;;;;;15.95;3.65;;;19.60;99.90;;;;;;5058199;28;20050;-77
2022/05/11 09:54:13;;;;;;;21.75;4.80;;;19.70;99.90;;;;;;5046761;28;20050;-77
2022/05/11 09:56:44;;;;;;;15.70;4.35;;;20.00;99.90;;;;;;5073838;28;20048;-79
2022/05/11 09:59:40;;;;;;;15.35;5.13;;;20.40;99.90;;;;;;5095540;28;20040;-78
2022/05/11 10:02:32;;;;;;;14.27;4.45;;;20.20;99.90;;;;;;5078745;28;20052;-77
2022/05/11 10:05:12;;;;;;;16.60;3.97;;;19.80;99.90;;;;;;5061773;28;20044;-77
2022/05/11 10:07:50;;;;;;;13.75;3.72;;;19.70;99.90;;;;;;5076554;28;20119;-77
2022/05/11 10:10:51;;;;;;;8.13;3.25;;;19.90;99.90;;;;;;5075296;28;20040;-77
2022/05/11 10:13:23;;;;;;;16.42;3.78;;;19.80;99.90;;;;;;5040816;28;20079;-78
2022/05/11 10:24:20;;;;;;;15.38;3.15;;;20.60;99.90;;;;;;5095046;28;20039;-78
2022/05/11 10:26:59;;;;;;;11.82;2.78;;;20.90;99.90;;;;;;5077083;28;20047;-77
2022/05/11 10:29:54;;;;;;;12.07;3.10;;;20.80;99.90;;;;;;5094896;28;20088;-77
2022/05/11 10:32:27;;;;;;;12.85;3.47;;;20.60;99.90;;;;;;5094749;28;20042;-76
2022/05/11 10:34:59;;;;;;;14.10;3.70;;;20.80;99.90;;;;;;5094705;28;20118;-77
2022/05/11 10:37:49;;;;;;;13.63;3.35;;;21.10;99.90;;;;;;5094836;28;20044;-79
2022/05/11 10:40:41;;;;;;;12.40;2.97;;;21.60;99.90;;;;;;5094748;28;20104;-77
2022/05/11 10:43:41;;;;;;;14.73;2.72;;;21.80;99.90;;;;;;5094752;28;20052;-76
2022/05/11 10:46:11;;;;;;;13.57;2.97;;;21.80;99.20;;;;;;5094268;28;20461;-77
2022/05/11 10:48:41;;;;;;;12.63;3.30;;;21.80;99.90;;;;;;5093983;28;20046;-78
2022/05/11 10:51:16;;;;;;;13.93;3.22;;;22.00;99.90;;;;;;5093421;28;20048;-76
2022/05/11 10:53:52;;;;;;;11.50;3.35;;;22.30;99.90;;;;;;5094491;28;20079;-77
2022/05/11 10:56:35;;;;;;;12.75;3.20;;;22.50;99.30;;;;;;5094447;28;20453;-76
2022/05/11 10:59:26;;;;;;;11.13;2.95;;;22.70;98.20;;;;;;5094273;28;20052;-77
2022/05/11 11:02:10;;;;;;;11.07;3.30;;;22.60;97.00;;;;;;5094546;28;20054;-78
2022/05/11 11:04:49;;;;;;;15.23;3.00;;;22.40;98.00;;;;;;5094501;28;20174;-77
2022/05/11 11:07:14;;;;;;;15.15;3.63;;;22.30;97.10;;;;;;5076418;28;20449;-78
2022/05/11 11:09:58;;;;;;;9.52;2.60;;;22.30;97.30;;;;;;5094121;28;20046;-78
2022/05/11 11:12:53;;;;;;;10.27;3.03;;;22.40;98.00;;;;;;5094311;28;20040;-77
2022/05/11 11:15:26;;;;;;;13.50;3.80;;;22.70;96.10;;;;;;5076255;28;20044;-77
2022/05/11 11:18:02;;;;;;;13.30;3.38;;;22.60;96.50;;;;;;5094043;28;20043;-85
2022/05/11 11:20:31;;;;;;;12.70;3.05;;;22.80;96.40;;;;;;5076883;28;20461;-77
2022/05/11 11:23:02;;;;;;;8.90;2.00;;;22.70;95.40;;;;;;5094353;28;20044;-78
2022/05/11 11:25:50;;;;;;;16.38;3.17;;;22.40;95.20;;;;;;5094008;28;20073;-79
2022/05/11 11:28:16;;;;;;;15.43;2.55;;;22.40;94.80;;;;;;5059210;28;20361;-77
2022/05/11 11:31:02;;;;;;;7.40;1.70;;;22.40;95.40;;;;;;5093815;28;20052;-78
2022/05/11 11:33:30;;;;;;;10.15;2.30;;;22.50;95.70;;;;;;5064600;28;20051;-77
2022/05/11 11:36:34;;;;;;;7.60;1.83;;;22.70;93.90;;;;;;5054881;28;20121;-77
2022/05/11 11:39:06;;;;;;;9.30;1.90;;;22.50;92.10;;;;;;5017230;28;20043;-77
2022/05/11 11:41:53;;;;;;;10.85;1.95;;;22.50;92.50;;;;;;5093770;28;20047;-76
2022/05/11 11:44:26;;;;;;;13.70;3.22;;;22.40;90.90;;;;;;5093133;28;20334;-76
2022/05/11 11:46:52;;;;;;;10.68;2.55;;;22.30;90.10;;;;;;5075690;28;20062;-77
2022/05/11 11:49:18;;;;;;;5.93;1.60;;;22.20;87.50;;;;;;5075510;28;20054;-77
2022/05/11 11:52:05;;;;;;;12.27;2.92;;;22.00;87.50;;;;;;5093530;28;20047;-77
2022/05/11 11:54:36;;;;;;;11.85;3.00;;;21.80;88.10;;;;;;5093104;28;20058;-78
2022/05/11 11:57:24;;;;;;;13.52;2.80;;;21.80;90.10;;;;;;5058790;28;20044;-78
2022/05/11 11:59:53;;;;;;;6.95;2.22;;;22.10;92.60;;;;;;5083588;28;20032;-77
2022/05/11 12:02:23;;;;;;;11.52;2.50;;;22.40;93.10;;;;;;5055192;28;20040;-79
2022/05/11 12:05:04;;;;;;;12.05;3.30;;;22.50;90.30;;;;;;5055592;28;20044;-78
2022/05/11 12:16:57;;;;;;;10.02;2.13;;;22.10;88.30;;;;;;5072775;28;20040;-77
2022/05/11 12:19:28;;;;;;;10.10;2.63;;;21.90;90.20;;;;;;5072868;28;20175;-78
2022/05/11 12:22:13;;;;;;;15.40;2.70;;;21.90;91.10;;;;;;5085951;28;20084;-77
2022/05/11 12:25:02;;;;;;;16.17;3.25;;;22.00;90.10;;;;;;5092767;28;20044;-78
2022/05/11 12:27:32;;;;;;;19.73;3.10;;;21.90;91.10;;;;;;5092819;28;20051;-78
2022/05/11 12:30:05;;;;;;;15.82;2.10;;;21.90;90.30;;;;;;5092852;28;20637;-79
2022/05/11 12:32:35;;;;;;;12.32;2.30;;;21.90;91.40;;;;;;5075115;28;20047;-77
2022/05/11 12:35:27;;;;;;;10.23;2.58;;;21.90;90.60;;;;;;5092682;28;20062;-77
2022/05/11 12:38:08;;;;;;;14.35;3.13;;;21.90;90.30;;;;;;5087909;28;20052;-77
2022/05/11 12:40:45;;;;;;;12.25;2.97;;;21.70;89.30;;;;;;5074737;28;20401;-77
2022/05/11 12:43:30;;;;;;;16.05;3.00;;;21.30;91.00;;;;;;5092668;28;20048;-77
2022/05/11 12:46:17;;;;;;;19.30;3.45;;;21.20;91.00;;;;;;5092560;28;20118;-77
2022/05/11 12:49:00;;;;;;;10.15;2.58;;;21.10;91.90;;;;;;5092568;28;20109;-77
2022/05/11 12:51:34;;;;;;;12.30;2.92;;;21.10;92.30;;;;;;5074899;28;20086;-77
2022/05/11 12:54:05;;;;;;;11.73;2.63;;;21.20;91.70;;;;;;5092479;28;20051;-78
2022/05/11 12:56:39;;;;;;;16.48;2.83;;;21.20;92.20;;;;;;5092628;28;20051;-77
2022/05/11 12:59:17;;;;;;;20.63;4.90;;;21.10;92.00;;;;;;5092490;28;20044;-77
2022/05/11 13:01:43;;;;;;;10.50;3.25;;;20.80;91.40;;;;;;5092520;28;20418;-77
2022/05/11 13:04:19;;;;;;;16.50;3.97;;;20.70;93.10;;;;;;5092014;28;20460;-76
2022/05/11 13:06:59;;;;;;;15.90;3.58;;;20.70;93.50;;;;;;5092264;28;20353;-78
2022/05/11 13:09:39;;;;;;;20.63;3.90;;;20.70;93.50;;;;;;5092530;28;20123;-78
2022/05/11 13:12:07;;;;;;;15.52;3.53;;;20.70;93.80;;;;;;5074336;28;20059;-78
2022/05/11 13:14:44;;;;;;;13.82;2.78;;;20.80;92.30;;;;;;5089253;28;20048;-77
2022/05/11 13:17:32;;;;;;;21.80;3.85;;;20.70;91.20;;;;;;5096529;28;20048;-77
2022/05/11 13:20:19;;;;;;;18.85;3.17;;;20.50;91.40;;;;;;5096463;28;20036;-77
2022/05/11 13:22:53;;;;;;;14.65;3.58;;;20.40;91.50;;;;;;5096368;28;20058;-77
2022/05/11 13:25:38;;;;;;;16.05;3.53;;;20.40;93.40;;;;;;5078549;28;20044;-79
2022/05/11 13:28:22;;;;;;;15.48;2.90;;;20.60;91.40;;;;;;5096225;28;20140;-78
2022/05/11 13:30:49;;;;;;;10.88;2.20;;;20.60;90.70;;;;;;5096340;28;20048;-78
2022/05/11 13:33:33;;;;;;;10.68;2.97;;;20.60;90.20;;;;;;5096315;28;20040;-77
2022/05/11 13:36:21;;;;;;;16.85;2.42;;;20.60;90.80;;;;;;5095982;28;20047;-78
2022/05/11 13:39:00;;;;;;;15.48;3.40;;;20.70;90.70;;;;;;5058244;28;20048;-78
2022/05/11 13:41:36;;;;;;;29.52;5.40;;;20.70;91.30;;;;;;5075682;28;20119;-77